"WATCHING THE WEATHER TO PROTECT LIFE AND PROPERTY"


THERE ARE CURRENTLY NO WATCHES NOR WARNINGS


Aviation
Satellite (InfraRed)


TNCA 261700Z 09025G36KT 9999 SCT023 31/24 Q1013 NOSIG
TNCB 261655Z 11019KT 080V160 9999 FEW016 BKN021 31/23 Q1014
TNCC 261700Z 09013KT 9999 FEW023 29/23 Q1014 NOSIG=
TNCM 261700Z 08009KT 050V120 9999 FEW018TCU 31/20 Q1019 NOSIG RMK TCU S